createdAt,value
2023-01-09T00:00:13.398Z,93.76
2023-01-09T00:04:16.150Z,93.76
2023-01-09T00:08:19.430Z,93.62
2023-01-09T00:12:22.039Z,93.62
2023-01-09T00:16:26.377Z,93.67
2023-01-09T00:20:29.039Z,93.46
2023-01-09T00:24:31.726Z,93.51
2023-01-09T00:28:35.267Z,93.60
2023-01-09T00:32:39.233Z,93.72
2023-01-09T00:36:41.861Z,93.69
2023-01-09T00:40:44.513Z,93.64
2023-01-09T00:44:50.618Z,93.72
2023-01-09T00:48:54.738Z,93.72
2023-01-09T00:53:01.178Z,93.58
2023-01-09T00:57:04.031Z,93.47
2023-01-09T01:01:07.239Z,93.44
2023-01-09T01:05:28.829Z,93.70
2023-01-09T01:09:31.565Z,93.49
2023-01-09T01:13:34.166Z,93.63
2023-01-09T01:17:38.486Z,93.38
2023-01-09T01:21:42.457Z,93.46
2023-01-09T01:25:45.065Z,93.40
2023-01-09T01:29:47.803Z,93.38
2023-01-09T01:33:50.427Z,93.43
2023-01-09T01:37:54.484Z,93.50
2023-01-09T01:41:57.160Z,93.34
2023-01-09T01:45:59.810Z,93.44
2023-01-09T01:50:07.919Z,93.51
2023-01-09T01:54:19.046Z,93.74
2023-01-09T01:58:21.939Z,93.68
2023-01-09T02:02:30.582Z,93.64
2023-01-09T02:06:35.436Z,93.71
2023-01-09T02:10:40.941Z,93.61
2023-01-09T02:14:43.672Z,93.59
2023-01-09T02:18:51.948Z,93.57
2023-01-09T02:23:10.444Z,93.85
2023-01-09T02:27:26.416Z,93.91
2023-01-09T02:31:38.772Z,93.82
2023-01-09T02:35:54.337Z,93.96
2023-01-09T02:40:05.782Z,93.63
2023-01-09T02:44:21.547Z,93.58
2023-01-09T02:48:25.604Z,93.77
2023-01-09T02:52:41.208Z,93.83
2023-01-09T02:56:59.446Z,93.55
2023-01-09T03:01:15.447Z,93.77
2023-01-09T03:05:26.531Z,93.97
2023-01-09T03:09:33.255Z,93.77
2023-01-09T03:13:41.085Z,93.72
2023-01-09T03:17:47.754Z,93.73
2023-01-09T03:21:53.091Z,93.68
2023-01-09T03:25:55.775Z,93.68
2023-01-09T03:29:58.398Z,93.67
2023-01-09T03:34:01.054Z,93.70
2023-01-09T03:38:06.659Z,93.70
2023-01-09T03:42:10.379Z,93.83
2023-01-09T03:46:13.098Z,93.76
2023-01-09T03:50:16.369Z,93.96
2023-01-09T03:54:20.352Z,94.16
2023-01-09T03:58:24.026Z,94.13
2023-01-09T04:02:26.698Z,94.16
2023-01-09T04:06:29.471Z,94.16
2023-01-09T04:10:33.484Z,94.42
2023-01-09T04:14:36.115Z,94.34
2023-01-09T04:18:38.766Z,94.50
2023-01-09T04:22:41.439Z,94.30
2023-01-09T04:26:45.425Z,94.24
2023-01-09T04:30:48.047Z,94.39
2023-01-09T04:34:50.729Z,94.29
2023-01-09T04:38:53.360Z,94.26
2023-01-09T04:42:57.325Z,94.40
2023-01-09T04:46:59.990Z,94.35
2023-01-09T04:51:02.624Z,94.43
2023-01-09T04:55:06.238Z,94.55
2023-01-09T04:59:10.427Z,94.58
2023-01-09T05:03:13.044Z,94.39
2023-01-09T05:07:15.705Z,94.77
2023-01-09T05:11:18.565Z,94.47
2023-01-09T05:15:22.802Z,94.25
2023-01-09T05:19:25.413Z,94.37
2023-01-09T05:23:28.082Z,94.20
2023-01-09T05:27:31.580Z,94.21
2023-01-09T05:31:35.605Z,94.10
2023-01-09T05:35:38.288Z,94.41
2023-01-09T05:39:40.922Z,94.06
2023-01-09T05:43:43.615Z,94.22
2023-01-09T05:47:47.684Z,93.94
2023-01-09T05:51:50.347Z,93.67
2023-01-09T05:55:53.074Z,94.04
2023-01-09T05:59:56.526Z,94.03
2023-01-09T06:04:00.510Z,93.64
2023-01-09T06:08:03.131Z,93.59
2023-01-09T06:12:06.528Z,93.33
2023-01-09T06:16:09.688Z,93.51
2023-01-09T06:20:14.547Z,93.63
2023-01-09T06:24:17.419Z,93.61
2023-01-09T06:28:20.053Z,93.84
2023-01-09T06:32:22.814Z,93.50
2023-01-09T06:36:26.961Z,93.51
2023-01-09T06:40:29.580Z,93.45
2023-01-09T06:44:33.116Z,93.61
2023-01-09T06:48:35.832Z,93.57
2023-01-09T06:52:40.428Z,93.74
2023-01-09T06:56:43.064Z,93.63
2023-01-09T07:00:45.880Z,93.69
2023-01-09T07:04:48.583Z,93.63
2023-01-09T07:08:52.580Z,93.69
2023-01-09T07:12:55.234Z,93.43
2023-01-09T07:16:58.075Z,93.55
2023-01-09T07:21:01.489Z,93.31
2023-01-09T07:25:06.373Z,94.03
2023-01-09T07:29:09.088Z,94.61
2023-01-09T07:33:11.821Z,94.55
2023-01-09T07:37:14.476Z,94.30
2023-01-09T07:41:18.448Z,94.23
2023-01-09T07:45:21.478Z,94.13
2023-01-09T07:49:26.679Z,93.72
2023-01-09T07:53:29.491Z,93.80
2023-01-09T07:57:33.583Z,93.93
2023-01-09T08:01:36.449Z,93.43
2023-01-09T08:05:39.252Z,93.35
2023-01-09T08:09:41.883Z,93.29
2023-01-09T08:13:45.862Z,92.94
2023-01-09T08:17:48.634Z,92.48
2023-01-09T08:21:51.257Z,91.99
2023-01-09T08:25:54.538Z,90.85
2023-01-09T08:29:58.492Z,90.79
2023-01-09T08:34:01.162Z,89.36
2023-01-09T08:38:04.379Z,87.74
2023-01-09T08:42:24.526Z,87.35
2023-01-09T08:46:46.519Z,85.96
2023-01-09T08:50:49.237Z,84.68
2023-01-09T08:54:51.870Z,84.84
2023-01-09T08:58:54.504Z,84.51
2023-01-09T09:03:00.848Z,84.77
2023-01-09T09:07:04.445Z,85.00
2023-01-09T09:11:07.303Z,85.86
2023-01-09T09:15:15.664Z,84.81
2023-01-09T09:19:20.416Z,84.65
2023-01-09T09:23:23.791Z,85.28
2023-01-09T09:27:26.415Z,84.80
2023-01-09T09:31:29.090Z,85.17
2023-01-09T09:35:33.825Z,82.80
2023-01-09T09:39:37.444Z,82.25
2023-01-09T09:44:25.052Z,81.40
2023-01-09T09:48:37.392Z,81.80
2023-01-09T09:52:51.012Z,80.86
2023-01-09T09:56:57.436Z,80.79
2023-01-09T10:01:02.118Z,80.82
2023-01-09T10:05:11.536Z,80.85
2023-01-09T10:09:25.900Z,80.47
2023-01-09T10:13:46.172Z,80.39
2023-01-09T10:18:01.955Z,80.27
2023-01-09T10:22:16.367Z,80.72
2023-01-09T10:26:26.572Z,81.05
2023-01-09T10:30:39.192Z,79.70
2023-01-09T10:34:54.345Z,79.68
2023-01-09T10:39:04.330Z,79.89
2023-01-09T10:43:15.200Z,79.93
2023-01-09T10:47:22.999Z,79.45
2023-01-09T10:51:30.949Z,80.31
2023-01-09T10:55:40.787Z,78.98
2023-01-09T10:59:44.837Z,79.96
2023-01-09T11:03:47.536Z,80.10
2023-01-09T11:07:54.351Z,80.14
2023-01-09T11:11:57.130Z,80.40
2023-01-09T11:16:05.489Z,79.56
2023-01-09T11:20:17.229Z,79.32
2023-01-09T11:24:31.445Z,79.39
2023-01-09T11:28:34.340Z,78.78
2023-01-09T11:32:39.359Z,78.79
2023-01-09T11:36:42.580Z,78.70
2023-01-09T11:40:50.907Z,78.68
2023-01-09T11:44:59.159Z,78.44
2023-01-09T11:49:04.727Z,78.41
2023-01-09T11:53:16.098Z,77.96
2023-01-09T11:57:19.436Z,77.19
2023-01-09T12:01:58.485Z,78.11
2023-01-09T12:06:14.337Z,77.04
2023-01-09T12:10:32.524Z,76.85
2023-01-09T12:14:48.044Z,75.65
2023-01-09T12:19:16.131Z,75.11
2023-01-09T12:23:39.344Z,74.44
2023-01-09T12:27:59.930Z,74.26
2023-01-09T12:32:22.858Z,73.96
2023-01-09T12:36:33.881Z,73.62
2023-01-09T12:41:02.310Z,73.89
2023-01-09T12:45:28.117Z,74.77
2023-01-09T12:49:36.120Z,74.00
2023-01-09T12:53:43.802Z,74.55
2023-01-09T12:57:50.870Z,74.26
2023-01-09T13:01:55.157Z,74.41
2023-01-09T13:05:58.499Z,74.21
2023-01-09T13:10:07.592Z,73.39
2023-01-09T13:14:17.182Z,73.85
2023-01-09T13:18:25.579Z,73.60
2023-01-09T13:22:30.079Z,73.39
2023-01-09T13:26:36.834Z,73.66
2023-01-09T13:30:46.156Z,74.22
2023-01-09T13:34:52.687Z,74.93
2023-01-09T13:38:58.293Z,74.83
2023-01-09T13:43:04.531Z,74.08
2023-01-09T13:47:18.279Z,74.09
2023-01-09T13:51:59.191Z,74.25
2023-01-09T13:56:06.619Z,74.62
2023-01-09T14:00:49.941Z,74.25
2023-01-09T14:04:54.030Z,73.64
2023-01-09T14:09:20.063Z,73.74
2023-01-09T14:13:27.271Z,73.40
2023-01-09T14:17:34.642Z,72.45
2023-01-09T14:21:51.267Z,72.60
2023-01-09T14:25:55.322Z,73.52
2023-01-09T14:30:18.559Z,73.42
2023-01-09T14:34:36.336Z,73.39
2023-01-09T14:38:43.384Z,73.56
2023-01-09T14:42:48.408Z,73.89
2023-01-09T14:46:52.797Z,74.48
2023-01-09T14:50:59.869Z,74.52
2023-01-09T14:55:07.647Z,74.66
2023-01-09T14:59:14.244Z,74.86
2023-01-09T15:03:17.949Z,74.90
2023-01-09T15:07:24.068Z,75.35
2023-01-09T15:11:29.663Z,75.80
2023-01-09T15:15:32.379Z,75.56
2023-01-09T15:19:35.638Z,76.04
2023-01-09T15:23:38.300Z,75.90
2023-01-09T15:27:49.667Z,76.07
2023-01-09T15:31:56.000Z,76.37
2023-01-09T15:36:02.751Z,76.52
2023-01-09T15:40:08.862Z,77.03
2023-01-09T15:44:18.896Z,77.18
2023-01-09T15:48:27.042Z,77.33
2023-01-09T15:52:29.873Z,77.20
2023-01-09T15:56:33.570Z,77.28
2023-01-09T16:00:41.805Z,77.83
2023-01-09T16:04:44.733Z,78.41
2023-01-09T16:08:52.214Z,78.48
2023-01-09T16:12:55.177Z,79.59
2023-01-09T16:17:03.404Z,80.35
2023-01-09T16:21:24.572Z,81.41
2023-01-09T16:25:31.015Z,82.71
2023-01-09T16:29:36.941Z,82.68
2023-01-09T16:33:46.511Z,93.67
2023-01-09T16:37:49.487Z,93.97
2023-01-09T16:42:10.346Z,91.55
2023-01-09T16:46:13.747Z,83.79
2023-01-09T16:50:17.999Z,82.56
2023-01-09T16:54:21.482Z,82.02
2023-01-09T16:58:26.902Z,82.16
2023-01-09T17:02:29.613Z,82.31
2023-01-09T17:06:33.880Z,82.98
2023-01-09T17:10:36.607Z,86.61
2023-01-09T17:14:39.231Z,86.37
2023-01-09T17:18:42.156Z,86.09
2023-01-09T17:22:47.218Z,85.05
2023-01-09T17:27:10.119Z,84.70
2023-01-09T17:31:13.195Z,84.54
2023-01-09T17:35:16.742Z,84.81
2023-01-09T17:39:20.698Z,84.65
2023-01-09T17:43:23.528Z,84.89
2023-01-09T17:47:26.228Z,85.45
2023-01-09T17:51:29.565Z,85.40
2023-01-09T17:55:34.784Z,85.66
2023-01-09T17:59:37.990Z,85.82
2023-01-09T18:03:40.857Z,85.71
2023-01-09T18:07:43.499Z,90.93
2023-01-09T18:11:48.396Z,86.55
2023-01-09T18:15:51.011Z,86.63
2023-01-09T18:19:53.605Z,87.22
2023-01-09T18:23:56.742Z,88.23
2023-01-09T18:28:01.013Z,88.17
2023-01-09T18:32:03.670Z,88.48
2023-01-09T18:36:07.779Z,87.98
2023-01-09T18:40:11.787Z,87.34
2023-01-09T18:44:18.015Z,86.97
2023-01-09T18:48:20.773Z,86.88
2023-01-09T18:52:23.537Z,87.13
2023-01-09T18:56:26.366Z,86.49
2023-01-09T19:00:30.370Z,86.31
2023-01-09T19:04:33.020Z,86.60
2023-01-09T19:08:36.669Z,87.00
2023-01-09T19:12:39.383Z,86.81
2023-01-09T19:16:43.818Z,86.85
2023-01-09T19:20:46.590Z,86.94
2023-01-09T19:24:50.050Z,86.98
2023-01-09T19:28:55.311Z,86.73
2023-01-09T19:32:59.460Z,86.86
2023-01-09T19:37:02.304Z,86.93
2023-01-09T19:41:13.012Z,86.87
2023-01-09T19:45:15.836Z,87.25
2023-01-09T19:49:20.119Z,87.00
2023-01-09T19:53:22.728Z,87.41
2023-01-09T19:57:25.735Z,87.29
2023-01-09T20:01:30.482Z,87.30
2023-01-09T20:05:35.557Z,87.14
2023-01-09T20:09:38.337Z,87.17
2023-01-09T20:13:41.020Z,87.15
2023-01-09T20:17:43.858Z,87.18
2023-01-09T20:21:49.225Z,86.85
2023-01-09T20:25:52.099Z,86.90
2023-01-09T20:29:54.753Z,87.00
2023-01-09T20:33:59.002Z,86.81
2023-01-09T20:38:03.138Z,87.05
2023-01-09T20:42:05.851Z,87.00
2023-01-09T20:46:09.407Z,86.71
2023-01-09T20:50:13.058Z,86.91
2023-01-09T20:54:18.178Z,86.74
2023-01-09T20:58:20.784Z,86.98
2023-01-09T21:02:23.429Z,86.57
2023-01-09T21:06:28.279Z,86.56
2023-01-09T21:10:32.336Z,86.97
2023-01-09T21:14:38.769Z,87.40
2023-01-09T21:18:43.251Z,87.40
2023-01-09T21:22:45.885Z,87.90
2023-01-09T21:26:49.898Z,87.98
2023-01-09T21:30:53.683Z,88.05
2023-01-09T21:34:56.342Z,92.01
2023-01-09T21:38:59.538Z,88.00
2023-01-09T21:43:20.890Z,87.85
2023-01-09T21:47:23.989Z,88.13
2023-01-09T21:51:27.386Z,88.17
2023-01-09T21:55:32.032Z,88.09
2023-01-09T21:59:36.012Z,88.34
2023-01-09T22:03:38.688Z,88.25
2023-01-09T22:07:41.336Z,88.20
2023-01-09T22:11:44.657Z,88.08
2023-01-09T22:15:48.753Z,88.22
2023-01-09T22:19:51.381Z,88.25
2023-01-09T22:23:54.181Z,88.25
2023-01-09T22:27:56.847Z,88.54
2023-01-09T22:32:00.860Z,88.38
2023-01-09T22:36:06.843Z,88.76
2023-01-09T22:40:11.044Z,88.42
2023-01-09T22:44:13.936Z,88.50
2023-01-09T22:48:17.949Z,88.08
2023-01-09T22:52:20.693Z,88.08
2023-01-09T22:56:23.512Z,88.01
2023-01-09T23:00:26.981Z,88.38
2023-01-09T23:04:30.972Z,88.38
2023-01-09T23:08:34.947Z,88.35
2023-01-09T23:12:37.608Z,88.75
2023-01-09T23:16:40.529Z,88.69
2023-01-09T23:20:51.279Z,88.34
2023-01-09T23:24:53.960Z,88.16
2023-01-09T23:28:56.553Z,87.81
2023-01-09T23:32:59.176Z,87.32
2023-01-09T23:37:05.890Z,87.04
2023-01-09T23:41:09.047Z,86.63
2023-01-09T23:45:12.062Z,87.00
2023-01-09T23:49:14.688Z,86.18
2023-01-09T23:53:19.521Z,86.02
2023-01-09T23:57:22.102Z,85.36
